Fitzwilliam, United Kingdom
Current Conditions -  °F | °C
As of 6:20 PM on Monday 22 Dec 2014 (Local Time) from EGCN Reporting Station
Overcast Overcast  
Wind Chill: 55°   Ceiling: 2700
Heat Index: 55°   Visibility: 6mi
Dew Point: 48°   Wind: 21mph
Humidity: 77%   Direction: 230°SW
Pressure: 29.85"   Gusts: NA
Location:  53.63°N, 1.38°W
Report Text: EGCN 221820Z 23018KT 9999 SCT021 OVC027 13/09 Q1011
Loading
Personal Weather Stations






























Interactive Weather Map New forecast layout! Learn more

10-Day Weather Forecast

Advertisements
Track Severe Weather on mobile